sensor_id;sensor_type;location;lat;lon;timestamp;P1;durP1;ratioP1;P2;durP2;ratioP2
4309;SDS011;2168;53.576;9.980;2024-03-07T00:02:18;0.10;;;0.10;;
4309;SDS011;2168;53.576;9.980;2024-03-07T00:04:43;0.10;;;0.10;;
4309;SDS011;2168;53.576;9.980;2024-03-07T00:07:09;0.20;;;0.20;;
4309;SDS011;2168;53.576;9.980;2024-03-07T00:09:34;0.20;;;0.20;;
4309;SDS011;2168;53.576;9.980;2024-03-07T00:12:00;0.10;;;0.10;;
4309;SDS011;2168;53.576;9.980;2024-03-07T00:14:25;0.10;;;0.10;;
4309;SDS011;2168;53.576;9.980;2024-03-07T00:16:52;0.10;;;0.10;;
4309;SDS011;2168;53.576;9.980;2024-03-07T00:19:17;0.13;;;0.13;;
4309;SDS011;2168;53.576;9.980;2024-03-07T00:21:43;0.10;;;0.10;;
4309;SDS011;2168;53.576;9.980;2024-03-07T00:24:08;0.10;;;0.10;;
4309;SDS011;2168;53.576;9.980;2024-03-07T00:26:33;0.10;;;0.10;;
4309;SDS011;2168;53.576;9.980;2024-03-07T00:28:58;0.10;;;0.10;;
4309;SDS011;2168;53.576;9.980;2024-03-07T00:31:24;0.10;;;0.10;;
4309;SDS011;2168;53.576;9.980;2024-03-07T00:33:49;0.10;;;0.10;;
4309;SDS011;2168;53.576;9.980;2024-03-07T00:36:14;0.20;;;0.20;;
4309;SDS011;2168;53.576;9.980;2024-03-07T00:38:40;0.10;;;0.10;;
4309;SDS011;2168;53.576;9.980;2024-03-07T00:41:05;0.10;;;0.10;;
4309;SDS011;2168;53.576;9.980;2024-03-07T00:43:31;0.10;;;0.10;;
4309;SDS011;2168;53.576;9.980;2024-03-07T00:45:56;0.10;;;0.10;;
4309;SDS011;2168;53.576;9.980;2024-03-07T00:48:21;0.10;;;0.10;;
4309;SDS011;2168;53.576;9.980;2024-03-07T00:50:46;0.20;;;0.20;;
4309;SDS011;2168;53.576;9.980;2024-03-07T00:53:12;0.10;;;0.10;;
4309;SDS011;2168;53.576;9.980;2024-03-07T00:55:37;0.10;;;0.10;;
4309;SDS011;2168;53.576;9.980;2024-03-07T00:58:02;0.10;;;0.10;;
4309;SDS011;2168;53.576;9.980;2024-03-07T01:00:28;0.10;;;0.10;;
4309;SDS011;2168;53.576;9.980;2024-03-07T01:02:53;0.20;;;0.20;;
4309;SDS011;2168;53.576;9.980;2024-03-07T01:05:18;0.13;;;0.13;;
4309;SDS011;2168;53.576;9.980;2024-03-07T01:07:44;0.10;;;0.10;;
4309;SDS011;2168;53.576;9.980;2024-03-07T01:10:11;0.20;;;0.20;;
4309;SDS011;2168;53.576;9.980;2024-03-07T01:12:36;0.20;;;0.20;;
4309;SDS011;2168;53.576;9.980;2024-03-07T01:15:01;0.20;;;0.20;;
4309;SDS011;2168;53.576;9.980;2024-03-07T01:17:29;0.10;;;0.10;;
4309;SDS011;2168;53.576;9.980;2024-03-07T01:19:54;0.20;;;0.20;;
4309;SDS011;2168;53.576;9.980;2024-03-07T01:22:19;0.10;;;0.10;;
4309;SDS011;2168;53.576;9.980;2024-03-07T01:24:45;0.10;;;0.10;;
4309;SDS011;2168;53.576;9.980;2024-03-07T01:27:10;0.10;;;0.10;;
4309;SDS011;2168;53.576;9.980;2024-03-07T01:29:35;0.10;;;0.10;;
4309;SDS011;2168;53.576;9.980;2024-03-07T01:32:00;0.20;;;0.20;;
4309;SDS011;2168;53.576;9.980;2024-03-07T01:34:25;0.10;;;0.10;;
4309;SDS011;2168;53.576;9.980;2024-03-07T01:36:51;0.10;;;0.10;;
4309;SDS011;2168;53.576;9.980;2024-03-07T01:39:16;0.10;;;0.10;;
4309;SDS011;2168;53.576;9.980;2024-03-07T01:41:41;0.10;;;0.10;;
4309;SDS011;2168;53.576;9.980;2024-03-07T01:44:07;0.10;;;0.10;;
4309;SDS011;2168;53.576;9.980;2024-03-07T01:46:32;0.20;;;0.20;;
4309;SDS011;2168;53.576;9.980;2024-03-07T01:48:58;0.10;;;0.10;;
4309;SDS011;2168;53.576;9.980;2024-03-07T01:51:23;0.10;;;0.10;;
4309;SDS011;2168;53.576;9.980;2024-03-07T01:53:48;0.20;;;0.20;;
4309;SDS011;2168;53.576;9.980;2024-03-07T01:56:14;0.20;;;0.20;;
4309;SDS011;2168;53.576;9.980;2024-03-07T01:58:39;0.20;;;0.20;;
4309;SDS011;2168;53.576;9.980;2024-03-07T02:01:05;0.20;;;0.20;;
4309;SDS011;2168;53.576;9.980;2024-03-07T02:03:31;0.13;;;0.13;;
4309;SDS011;2168;53.576;9.980;2024-03-07T02:05:56;0.20;;;0.20;;
4309;SDS011;2168;53.576;9.980;2024-03-07T02:08:21;0.10;;;0.10;;
4309;SDS011;2168;53.576;9.980;2024-03-07T02:10:47;0.20;;;0.20;;
4309;SDS011;2168;53.576;9.980;2024-03-07T02:13:13;0.10;;;0.10;;
4309;SDS011;2168;53.576;9.980;2024-03-07T02:15:38;0.20;;;0.20;;
4309;SDS011;2168;53.576;9.980;2024-03-07T02:18:04;0.10;;;0.10;;
4309;SDS011;2168;53.576;9.980;2024-03-07T02:20:29;0.10;;;0.10;;
4309;SDS011;2168;53.576;9.980;2024-03-07T02:22:54;0.10;;;0.10;;
4309;SDS011;2168;53.576;9.980;2024-03-07T02:25:19;0.20;;;0.20;;
4309;SDS011;2168;53.576;9.980;2024-03-07T02:27:45;0.10;;;0.10;;
4309;SDS011;2168;53.576;9.980;2024-03-07T02:30:13;0.10;;;0.10;;
4309;SDS011;2168;53.576;9.980;2024-03-07T02:32:39;0.20;;;0.20;;
4309;SDS011;2168;53.576;9.980;2024-03-07T02:35:05;0.10;;;0.10;;
4309;SDS011;2168;53.576;9.980;2024-03-07T02:37:30;0.10;;;0.10;;
4309;SDS011;2168;53.576;9.980;2024-03-07T02:39:56;0.10;;;0.10;;
4309;SDS011;2168;53.576;9.980;2024-03-07T02:42:21;0.20;;;0.20;;
4309;SDS011;2168;53.576;9.980;2024-03-07T02:44:46;0.10;;;0.10;;
4309;SDS011;2168;53.576;9.980;2024-03-07T02:47:11;0.10;;;0.10;;
4309;SDS011;2168;53.576;9.980;2024-03-07T02:49:37;0.10;;;0.10;;
4309;SDS011;2168;53.576;9.980;2024-03-07T02:52:02;0.20;;;0.20;;
4309;SDS011;2168;53.576;9.980;2024-03-07T02:54:31;0.10;;;0.10;;
4309;SDS011;2168;53.576;9.980;2024-03-07T02:56:57;0.13;;;0.13;;
4309;SDS011;2168;53.576;9.980;2024-03-07T02:59:22;0.10;;;0.10;;
4309;SDS011;2168;53.576;9.980;2024-03-07T03:01:48;0.10;;;0.10;;
4309;SDS011;2168;53.576;9.980;2024-03-07T03:04:13;0.10;;;0.10;;
4309;SDS011;2168;53.576;9.980;2024-03-07T03:06:39;0.10;;;0.10;;
4309;SDS011;2168;53.576;9.980;2024-03-07T03:09:04;0.10;;;0.10;;
4309;SDS011;2168;53.576;9.980;2024-03-07T03:11:30;0.10;;;0.10;;
4309;SDS011;2168;53.576;9.980;2024-03-07T03:13:55;0.10;;;0.10;;
4309;SDS011;2168;53.576;9.980;2024-03-07T03:16:20;0.10;;;0.10;;
4309;SDS011;2168;53.576;9.980;2024-03-07T03:18:46;0.10;;;0.10;;
4309;SDS011;2168;53.576;9.980;2024-03-07T03:21:13;0.10;;;0.10;;
4309;SDS011;2168;53.576;9.980;2024-03-07T03:23:40;0.10;;;0.10;;
4309;SDS011;2168;53.576;9.980;2024-03-07T03:26:05;0.10;;;0.10;;
4309;SDS011;2168;53.576;9.980;2024-03-07T03:28:31;0.10;;;0.10;;
4309;SDS011;2168;53.576;9.980;2024-03-07T03:30:56;0.10;;;0.10;;
4309;SDS011;2168;53.576;9.980;2024-03-07T03:33:22;0.10;;;0.10;;
4309;SDS011;2168;53.576;9.980;2024-03-07T03:35:47;0.10;;;0.10;;
4309;SDS011;2168;53.576;9.980;2024-03-07T03:38:13;0.10;;;0.10;;
4309;SDS011;2168;53.576;9.980;2024-03-07T03:40:38;0.10;;;0.10;;
4309;SDS011;2168;53.576;9.980;2024-03-07T03:43:03;0.10;;;0.10;;
4309;SDS011;2168;53.576;9.980;2024-03-07T03:45:29;0.13;;;0.13;;
4309;SDS011;2168;53.576;9.980;2024-03-07T03:47:54;0.10;;;0.10;;
4309;SDS011;2168;53.576;9.980;2024-03-07T03:50:19;0.40;;;0.40;;
4309;SDS011;2168;53.576;9.980;2024-03-07T03:52:45;0.10;;;0.10;;
4309;SDS011;2168;53.576;9.980;2024-03-07T03:55:10;0.10;;;0.10;;
4309;SDS011;2168;53.576;9.980;2024-03-07T03:57:39;0.17;;;0.17;;
4309;SDS011;2168;53.576;9.980;2024-03-07T04:00:06;0.20;;;0.20;;
4309;SDS011;2168;53.576;9.980;2024-03-07T04:02:41;0.10;;;0.10;;
4309;SDS011;2168;53.576;9.980;2024-03-07T04:05:06;0.10;;;0.10;;
4309;SDS011;2168;53.576;9.980;2024-03-07T04:07:32;0.10;;;0.10;;
4309;SDS011;2168;53.576;9.980;2024-03-07T04:09:57;0.10;;;0.10;;
4309;SDS011;2168;53.576;9.980;2024-03-07T04:12:28;0.10;;;0.10;;
4309;SDS011;2168;53.576;9.980;2024-03-07T04:14:53;0.20;;;0.20;;
4309;SDS011;2168;53.576;9.980;2024-03-07T04:17:21;0.00;;;0.00;;
4309;SDS011;2168;53.576;9.980;2024-03-07T04:19:47;0.10;;;0.10;;
4309;SDS011;2168;53.576;9.980;2024-03-07T04:22:12;0.10;;;0.10;;
4309;SDS011;2168;53.576;9.980;2024-03-07T04:24:37;0.10;;;0.10;;
4309;SDS011;2168;53.576;9.980;2024-03-07T04:27:03;0.10;;;0.10;;
4309;SDS011;2168;53.576;9.980;2024-03-07T04:29:32;0.20;;;0.20;;
4309;SDS011;2168;53.576;9.980;2024-03-07T04:32:00;0.10;;;0.10;;
4309;SDS011;2168;53.576;9.980;2024-03-07T04:34:31;0.10;;;0.10;;
4309;SDS011;2168;53.576;9.980;2024-03-07T04:36:57;0.10;;;0.10;;
4309;SDS011;2168;53.576;9.980;2024-03-07T04:39:24;0.10;;;0.10;;
4309;SDS011;2168;53.576;9.980;2024-03-07T04:42:07;0.10;;;0.10;;
4309;SDS011;2168;53.576;9.980;2024-03-07T04:44:34;0.10;;;0.10;;
4309;SDS011;2168;53.576;9.980;2024-03-07T04:47:04;0.20;;;0.20;;
4309;SDS011;2168;53.576;9.980;2024-03-07T04:49:30;0.10;;;0.10;;
4309;SDS011;2168;53.576;9.980;2024-03-07T04:51:57;0.10;;;0.10;;
4309;SDS011;2168;53.576;9.980;2024-03-07T04:54:26;0.00;;;0.00;;
4309;SDS011;2168;53.576;9.980;2024-03-07T04:56:52;0.07;;;0.07;;
4309;SDS011;2168;53.576;9.980;2024-03-07T04:59:18;0.10;;;0.10;;
4309;SDS011;2168;53.576;9.980;2024-03-07T05:01:43;0.10;;;0.10;;
4309;SDS011;2168;53.576;9.980;2024-03-07T05:04:08;0.00;;;0.00;;
4309;SDS011;2168;53.576;9.980;2024-03-07T05:06:34;0.10;;;0.10;;
4309;SDS011;2168;53.576;9.980;2024-03-07T05:09:00;0.00;;;0.00;;
4309;SDS011;2168;53.576;9.980;2024-03-07T05:11:26;0.00;;;0.00;;
4309;SDS011;2168;53.576;9.980;2024-03-07T05:13:52;0.00;;;0.00;;
4309;SDS011;2168;53.576;9.980;2024-03-07T05:16:17;0.10;;;0.10;;
4309;SDS011;2168;53.576;9.980;2024-03-07T05:18:42;0.00;;;0.00;;
4309;SDS011;2168;53.576;9.980;2024-03-07T05:21:08;0.10;;;0.10;;
4309;SDS011;2168;53.576;9.980;2024-03-07T05:23:52;0.00;;;0.00;;
4309;SDS011;2168;53.576;9.980;2024-03-07T05:26:17;0.10;;;0.10;;
4309;SDS011;2168;53.576;9.980;2024-03-07T05:28:43;0.10;;;0.10;;
4309;SDS011;2168;53.576;9.980;2024-03-07T05:31:08;0.00;;;0.00;;
4309;SDS011;2168;53.576;9.980;2024-03-07T05:33:37;0.10;;;0.10;;
4309;SDS011;2168;53.576;9.980;2024-03-07T05:36:04;0.10;;;0.10;;
4309;SDS011;2168;53.576;9.980;2024-03-07T05:38:39;0.20;;;0.20;;
4309;SDS011;2168;53.576;9.980;2024-03-07T05:41:05;0.10;;;0.10;;
4309;SDS011;2168;53.576;9.980;2024-03-07T05:43:30;0.10;;;0.10;;
4309;SDS011;2168;53.576;9.980;2024-03-07T05:45:55;0.10;;;0.10;;
4309;SDS011;2168;53.576;9.980;2024-03-07T05:48:21;0.10;;;0.10;;
4309;SDS011;2168;53.576;9.980;2024-03-07T05:50:46;0.10;;;0.10;;
4309;SDS011;2168;53.576;9.980;2024-03-07T05:53:11;0.20;;;0.20;;
4309;SDS011;2168;53.576;9.980;2024-03-07T05:55:36;0.20;;;0.20;;
4309;SDS011;2168;53.576;9.980;2024-03-07T05:58:02;0.20;;;0.20;;
4309;SDS011;2168;53.576;9.980;2024-03-07T06:00:27;0.10;;;0.10;;
4309;SDS011;2168;53.576;9.980;2024-03-07T06:02:53;0.10;;;0.10;;
4309;SDS011;2168;53.576;9.980;2024-03-07T06:05:18;0.17;;;0.17;;
4309;SDS011;2168;53.576;9.980;2024-03-07T06:07:46;0.20;;;0.20;;
4309;SDS011;2168;53.576;9.980;2024-03-07T06:10:11;0.20;;;0.20;;
4309;SDS011;2168;53.576;9.980;2024-03-07T06:12:37;0.10;;;0.10;;
4309;SDS011;2168;53.576;9.980;2024-03-07T06:15:05;0.20;;;0.20;;
4309;SDS011;2168;53.576;9.980;2024-03-07T06:17:33;0.10;;;0.10;;
4309;SDS011;2168;53.576;9.980;2024-03-07T06:20:01;0.10;;;0.10;;
4309;SDS011;2168;53.576;9.980;2024-03-07T06:22:27;0.10;;;0.10;;
4309;SDS011;2168;53.576;9.980;2024-03-07T06:24:52;0.10;;;0.10;;
4309;SDS011;2168;53.576;9.980;2024-03-07T06:27:18;0.10;;;0.10;;
4309;SDS011;2168;53.576;9.980;2024-03-07T06:29:51;0.10;;;0.10;;
4309;SDS011;2168;53.576;9.980;2024-03-07T06:32:18;0.20;;;0.20;;
4309;SDS011;2168;53.576;9.980;2024-03-07T06:34:43;0.10;;;0.10;;
4309;SDS011;2168;53.576;9.980;2024-03-07T06:37:09;0.10;;;0.10;;
4309;SDS011;2168;53.576;9.980;2024-03-07T06:39:34;0.17;;;0.17;;
4309;SDS011;2168;53.576;9.980;2024-03-07T06:42:00;0.10;;;0.10;;
4309;SDS011;2168;53.576;9.980;2024-03-07T06:44:25;0.10;;;0.10;;
4309;SDS011;2168;53.576;9.980;2024-03-07T06:46:51;0.10;;;0.10;;
4309;SDS011;2168;53.576;9.980;2024-03-07T06:49:17;0.00;;;0.00;;
4309;SDS011;2168;53.576;9.980;2024-03-07T06:51:42;0.10;;;0.10;;
4309;SDS011;2168;53.576;9.980;2024-03-07T06:54:09;0.10;;;0.10;;
4309;SDS011;2168;53.576;9.980;2024-03-07T06:56:34;0.20;;;0.20;;
4309;SDS011;2168;53.576;9.980;2024-03-07T06:58:59;0.20;;;0.20;;
4309;SDS011;2168;53.576;9.980;2024-03-07T07:01:27;0.10;;;0.10;;
4309;SDS011;2168;53.576;9.980;2024-03-07T07:03:54;0.17;;;0.17;;
4309;SDS011;2168;53.576;9.980;2024-03-07T07:06:19;0.10;;;0.10;;
4309;SDS011;2168;53.576;9.980;2024-03-07T07:08:45;0.20;;;0.20;;
4309;SDS011;2168;53.576;9.980;2024-03-07T07:11:10;0.20;;;0.20;;
4309;SDS011;2168;53.576;9.980;2024-03-07T07:13:36;0.10;;;0.10;;
4309;SDS011;2168;53.576;9.980;2024-03-07T07:16:01;0.20;;;0.20;;
4309;SDS011;2168;53.576;9.980;2024-03-07T07:18:27;0.13;;;0.13;;
4309;SDS011;2168;53.576;9.980;2024-03-07T07:20:53;0.10;;;0.10;;
4309;SDS011;2168;53.576;9.980;2024-03-07T07:23:19;0.10;;;0.10;;
4309;SDS011;2168;53.576;9.980;2024-03-07T07:25:45;0.10;;;0.10;;
4309;SDS011;2168;53.576;9.980;2024-03-07T07:28:11;0.10;;;0.10;;
4309;SDS011;2168;53.576;9.980;2024-03-07T07:30:36;0.10;;;0.10;;
4309;SDS011;2168;53.576;9.980;2024-03-07T07:33:02;0.10;;;0.10;;
4309;SDS011;2168;53.576;9.980;2024-03-07T07:35:28;0.10;;;0.10;;
4309;SDS011;2168;53.576;9.980;2024-03-07T07:37:53;0.30;;;0.30;;
4309;SDS011;2168;53.576;9.980;2024-03-07T07:40:20;0.10;;;0.10;;
4309;SDS011;2168;53.576;9.980;2024-03-07T07:42:48;0.10;;;0.10;;
4309;SDS011;2168;53.576;9.980;2024-03-07T07:45:14;0.10;;;0.10;;
4309;SDS011;2168;53.576;9.980;2024-03-07T07:47:42;0.10;;;0.10;;
4309;SDS011;2168;53.576;9.980;2024-03-07T07:50:09;0.10;;;0.10;;
4309;SDS011;2168;53.576;9.980;2024-03-07T07:52:42;0.20;;;0.20;;
4309;SDS011;2168;53.576;9.980;2024-03-07T07:55:08;0.30;;;0.30;;
4309;SDS011;2168;53.576;9.980;2024-03-07T07:57:39;0.20;;;0.20;;
4309;SDS011;2168;53.576;9.980;2024-03-07T08:00:05;0.10;;;0.10;;
4309;SDS011;2168;53.576;9.980;2024-03-07T08:02:33;0.20;;;0.20;;
4309;SDS011;2168;53.576;9.980;2024-03-07T08:04:59;0.10;;;0.10;;
4309;SDS011;2168;53.576;9.980;2024-03-07T08:07:24;0.20;;;0.20;;
4309;SDS011;2168;53.576;9.980;2024-03-07T08:09:49;0.30;;;0.30;;
4309;SDS011;2168;53.576;9.980;2024-03-07T08:12:14;0.20;;;0.20;;
4309;SDS011;2168;53.576;9.980;2024-03-07T08:14:39;0.20;;;0.20;;
4309;SDS011;2168;53.576;9.980;2024-03-07T08:17:05;0.33;;;0.33;;
4309;SDS011;2168;53.576;9.980;2024-03-07T08:19:31;0.20;;;0.20;;
4309;SDS011;2168;53.576;9.980;2024-03-07T08:21:56;0.30;;;0.30;;
4309;SDS011;2168;53.576;9.980;2024-03-07T08:24:22;0.30;;;0.30;;
4309;SDS011;2168;53.576;9.980;2024-03-07T08:26:47;0.40;;;0.40;;
4309;SDS011;2168;53.576;9.980;2024-03-07T08:29:13;0.20;;;0.20;;
4309;SDS011;2168;53.576;9.980;2024-03-07T08:31:38;0.30;;;0.30;;
4309;SDS011;2168;53.576;9.980;2024-03-07T08:34:03;0.20;;;0.20;;
4309;SDS011;2168;53.576;9.980;2024-03-07T08:36:29;0.23;;;0.23;;
4309;SDS011;2168;53.576;9.980;2024-03-07T08:38:54;0.10;;;0.10;;
4309;SDS011;2168;53.576;9.980;2024-03-07T08:41:19;0.10;;;0.10;;
4309;SDS011;2168;53.576;9.980;2024-03-07T08:43:44;0.20;;;0.20;;
4309;SDS011;2168;53.576;9.980;2024-03-07T08:46:10;0.20;;;0.20;;
4309;SDS011;2168;53.576;9.980;2024-03-07T08:48:36;0.20;;;0.20;;
4309;SDS011;2168;53.576;9.980;2024-03-07T08:51:01;0.30;;;0.30;;
4309;SDS011;2168;53.576;9.980;2024-03-07T08:53:27;0.50;;;0.50;;
4309;SDS011;2168;53.576;9.980;2024-03-07T08:55:52;0.50;;;0.50;;
4309;SDS011;2168;53.576;9.980;2024-03-07T08:58:17;0.53;;;0.53;;
4309;SDS011;2168;53.576;9.980;2024-03-07T09:00:42;0.30;;;0.30;;
4309;SDS011;2168;53.576;9.980;2024-03-07T09:03:10;0.27;;;0.27;;
4309;SDS011;2168;53.576;9.980;2024-03-07T09:05:35;0.40;;;0.40;;
4309;SDS011;2168;53.576;9.980;2024-03-07T09:08:00;0.40;;;0.40;;
4309;SDS011;2168;53.576;9.980;2024-03-07T09:10:25;0.40;;;0.40;;
4309;SDS011;2168;53.576;9.980;2024-03-07T09:12:51;0.30;;;0.30;;
4309;SDS011;2168;53.576;9.980;2024-03-07T09:15:16;0.30;;;0.30;;
4309;SDS011;2168;53.576;9.980;2024-03-07T09:17:42;0.33;;;0.33;;
4309;SDS011;2168;53.576;9.980;2024-03-07T09:20:09;0.30;;;0.30;;
4309;SDS011;2168;53.576;9.980;2024-03-07T09:22:39;0.30;;;0.30;;
4309;SDS011;2168;53.576;9.980;2024-03-07T09:25:04;0.23;;;0.23;;
4309;SDS011;2168;53.576;9.980;2024-03-07T09:27:30;0.40;;;0.40;;
4309;SDS011;2168;53.576;9.980;2024-03-07T09:29:55;0.40;;;0.40;;
4309;SDS011;2168;53.576;9.980;2024-03-07T09:32:20;0.30;;;0.30;;
4309;SDS011;2168;53.576;9.980;2024-03-07T09:34:47;0.20;;;0.20;;
4309;SDS011;2168;53.576;9.980;2024-03-07T09:37:12;0.20;;;0.20;;
4309;SDS011;2168;53.576;9.980;2024-03-07T09:39:38;0.30;;;0.30;;
4309;SDS011;2168;53.576;9.980;2024-03-07T09:42:07;0.10;;;0.10;;
4309;SDS011;2168;53.576;9.980;2024-03-07T09:44:36;0.20;;;0.20;;
4309;SDS011;2168;53.576;9.980;2024-03-07T09:47:04;0.17;;;0.17;;
4309;SDS011;2168;53.576;9.980;2024-03-07T09:49:30;0.10;;;0.10;;
4309;SDS011;2168;53.576;9.980;2024-03-07T09:51:55;0.10;;;0.10;;
4309;SDS011;2168;53.576;9.980;2024-03-07T09:54:24;0.20;;;0.20;;
4309;SDS011;2168;53.576;9.980;2024-03-07T09:56:53;0.20;;;0.20;;
4309;SDS011;2168;53.576;9.980;2024-03-07T09:59:19;0.10;;;0.10;;
4309;SDS011;2168;53.576;9.980;2024-03-07T10:01:45;0.13;;;0.13;;
4309;SDS011;2168;53.576;9.980;2024-03-07T10:04:12;0.10;;;0.10;;
4309;SDS011;2168;53.576;9.980;2024-03-07T10:06:39;0.20;;;0.20;;
4309;SDS011;2168;53.576;9.980;2024-03-07T10:09:05;0.10;;;0.10;;
4309;SDS011;2168;53.576;9.980;2024-03-07T10:11:32;0.10;;;0.10;;
4309;SDS011;2168;53.576;9.980;2024-03-07T10:13:57;0.20;;;0.20;;
4309;SDS011;2168;53.576;9.980;2024-03-07T10:16:23;0.20;;;0.20;;
4309;SDS011;2168;53.576;9.980;2024-03-07T10:18:48;0.20;;;0.20;;
4309;SDS011;2168;53.576;9.980;2024-03-07T10:21:15;0.20;;;0.20;;
4309;SDS011;2168;53.576;9.980;2024-03-07T10:23:43;0.20;;;0.20;;
4309;SDS011;2168;53.576;9.980;2024-03-07T10:26:09;0.10;;;0.10;;
4309;SDS011;2168;53.576;9.980;2024-03-07T10:28:35;0.20;;;0.20;;
4309;SDS011;2168;53.576;9.980;2024-03-07T10:31:00;0.20;;;0.20;;
4309;SDS011;2168;53.576;9.980;2024-03-07T10:33:28;0.20;;;0.20;;
4309;SDS011;2168;53.576;9.980;2024-03-07T10:35:58;0.20;;;0.20;;
4309;SDS011;2168;53.576;9.980;2024-03-07T10:38:23;0.20;;;0.20;;
4309;SDS011;2168;53.576;9.980;2024-03-07T10:40:49;0.20;;;0.20;;
4309;SDS011;2168;53.576;9.980;2024-03-07T10:43:18;0.10;;;0.10;;
4309;SDS011;2168;53.576;9.980;2024-03-07T10:45:45;0.10;;;0.10;;
4309;SDS011;2168;53.576;9.980;2024-03-07T10:48:13;0.20;;;0.20;;
4309;SDS011;2168;53.576;9.980;2024-03-07T10:53:29;0.30;;;0.30;;
4309;SDS011;2168;53.576;9.980;2024-03-07T10:56:04;0.30;;;0.30;;
4309;SDS011;2168;53.576;9.980;2024-03-07T10:58:48;0.20;;;0.20;;
4309;SDS011;2168;53.576;9.980;2024-03-07T11:01:16;0.20;;;0.20;;
4309;SDS011;2168;53.576;9.980;2024-03-07T11:03:43;0.20;;;0.20;;
4309;SDS011;2168;53.576;9.980;2024-03-07T11:06:09;0.30;;;0.30;;
4309;SDS011;2168;53.576;9.980;2024-03-07T11:08:36;0.30;;;0.30;;
4309;SDS011;2168;53.576;9.980;2024-03-07T11:11:02;0.50;;;0.50;;
4309;SDS011;2168;53.576;9.980;2024-03-07T11:13:27;0.30;;;0.30;;
4309;SDS011;2168;53.576;9.980;2024-03-07T11:15:53;0.20;;;0.20;;
4309;SDS011;2168;53.576;9.980;2024-03-07T11:18:22;0.20;;;0.20;;
4309;SDS011;2168;53.576;9.980;2024-03-07T11:20:49;0.30;;;0.30;;
4309;SDS011;2168;53.576;9.980;2024-03-07T11:23:30;0.30;;;0.30;;
4309;SDS011;2168;53.576;9.980;2024-03-07T11:28:32;0.30;;;0.30;;
4309;SDS011;2168;53.576;9.980;2024-03-07T11:31:07;0.23;;;0.23;;
4309;SDS011;2168;53.576;9.980;2024-03-07T11:33:34;0.23;;;0.23;;
4309;SDS011;2168;53.576;9.980;2024-03-07T11:35:59;0.27;;;0.27;;
4309;SDS011;2168;53.576;9.980;2024-03-07T11:38:31;0.20;;;0.20;;
4309;SDS011;2168;53.576;9.980;2024-03-07T11:40:59;0.20;;;0.20;;
4309;SDS011;2168;53.576;9.980;2024-03-07T11:43:26;0.20;;;0.20;;
4309;SDS011;2168;53.576;9.980;2024-03-07T11:45:52;0.27;;;0.27;;
4309;SDS011;2168;53.576;9.980;2024-03-07T11:48:18;0.30;;;0.30;;
4309;SDS011;2168;53.576;9.980;2024-03-07T11:50:45;0.30;;;0.30;;
4309;SDS011;2168;53.576;9.980;2024-03-07T11:53:10;0.13;;;0.13;;
4309;SDS011;2168;53.576;9.980;2024-03-07T11:55:36;0.20;;;0.20;;
4309;SDS011;2168;53.576;9.980;2024-03-07T11:58:14;0.30;;;0.30;;
4309;SDS011;2168;53.576;9.980;2024-03-07T12:00:44;0.50;;;0.50;;
4309;SDS011;2168;53.576;9.980;2024-03-07T12:03:17;0.20;;;0.20;;
4309;SDS011;2168;53.576;9.980;2024-03-07T12:05:43;0.20;;;0.20;;
4309;SDS011;2168;53.576;9.980;2024-03-07T12:08:10;0.30;;;0.30;;
4309;SDS011;2168;53.576;9.980;2024-03-07T12:10:36;0.33;;;0.33;;
4309;SDS011;2168;53.576;9.980;2024-03-07T12:13:03;0.30;;;0.30;;
4309;SDS011;2168;53.576;9.980;2024-03-07T12:15:28;0.20;;;0.20;;
4309;SDS011;2168;53.576;9.980;2024-03-07T12:17:54;0.20;;;0.20;;
4309;SDS011;2168;53.576;9.980;2024-03-07T12:20:20;0.20;;;0.20;;
4309;SDS011;2168;53.576;9.980;2024-03-07T12:23:01;0.27;;;0.27;;
4309;SDS011;2168;53.576;9.980;2024-03-07T12:25:28;0.30;;;0.30;;
4309;SDS011;2168;53.576;9.980;2024-03-07T12:28:07;0.20;;;0.20;;
4309;SDS011;2168;53.576;9.980;2024-03-07T12:30:49;0.20;;;0.20;;
4309;SDS011;2168;53.576;9.980;2024-03-07T12:33:18;0.20;;;0.20;;
4309;SDS011;2168;53.576;9.980;2024-03-07T12:35:44;0.40;;;0.40;;
4309;SDS011;2168;53.576;9.980;2024-03-07T12:38:11;0.40;;;0.40;;
4309;SDS011;2168;53.576;9.980;2024-03-07T12:40:38;0.30;;;0.30;;
4309;SDS011;2168;53.576;9.980;2024-03-07T12:43:16;0.30;;;0.30;;
4309;SDS011;2168;53.576;9.980;2024-03-07T12:45:48;0.20;;;0.20;;
4309;SDS011;2168;53.576;9.980;2024-03-07T12:48:17;0.30;;;0.30;;
4309;SDS011;2168;53.576;9.980;2024-03-07T12:50:45;0.30;;;0.30;;
4309;SDS011;2168;53.576;9.980;2024-03-07T12:53:10;0.20;;;0.20;;
4309;SDS011;2168;53.576;9.980;2024-03-07T12:55:40;0.30;;;0.30;;
4309;SDS011;2168;53.576;9.980;2024-03-07T12:58:08;0.27;;;0.27;;
4309;SDS011;2168;53.576;9.980;2024-03-07T13:00:35;0.20;;;0.20;;
4309;SDS011;2168;53.576;9.980;2024-03-07T13:03:00;0.30;;;0.30;;
4309;SDS011;2168;53.576;9.980;2024-03-07T13:05:25;1.10;;;1.10;;
4309;SDS011;2168;53.576;9.980;2024-03-07T13:07:51;0.30;;;0.30;;
4309;SDS011;2168;53.576;9.980;2024-03-07T13:10:19;0.30;;;0.30;;
4309;SDS011;2168;53.576;9.980;2024-03-07T13:12:45;0.30;;;0.30;;
4309;SDS011;2168;53.576;9.980;2024-03-07T13:15:11;0.30;;;0.30;;
4309;SDS011;2168;53.576;9.980;2024-03-07T13:17:37;0.33;;;0.33;;
4309;SDS011;2168;53.576;9.980;2024-03-07T13:20:02;0.20;;;0.20;;
4309;SDS011;2168;53.576;9.980;2024-03-07T13:22:28;0.30;;;0.30;;
4309;SDS011;2168;53.576;9.980;2024-03-07T13:24:56;0.47;;;0.47;;
4309;SDS011;2168;53.576;9.980;2024-03-07T13:27:25;0.30;;;0.30;;
4309;SDS011;2168;53.576;9.980;2024-03-07T13:29:53;0.27;;;0.27;;
4309;SDS011;2168;53.576;9.980;2024-03-07T13:32:19;0.50;;;0.50;;
4309;SDS011;2168;53.576;9.980;2024-03-07T13:34:44;0.40;;;0.40;;
4309;SDS011;2168;53.576;9.980;2024-03-07T13:37:10;0.30;;;0.30;;
4309;SDS011;2168;53.576;9.980;2024-03-07T13:39:37;0.50;;;0.50;;
4309;SDS011;2168;53.576;9.980;2024-03-07T13:42:02;0.30;;;0.30;;
4309;SDS011;2168;53.576;9.980;2024-03-07T13:44:29;0.40;;;0.40;;
4309;SDS011;2168;53.576;9.980;2024-03-07T13:46:55;0.30;;;0.30;;
4309;SDS011;2168;53.576;9.980;2024-03-07T13:49:20;0.30;;;0.30;;
4309;SDS011;2168;53.576;9.980;2024-03-07T13:51:49;0.30;;;0.30;;
4309;SDS011;2168;53.576;9.980;2024-03-07T13:54:24;0.30;;;0.30;;
4309;SDS011;2168;53.576;9.980;2024-03-07T13:59:42;0.40;;;0.40;;
4309;SDS011;2168;53.576;9.980;2024-03-07T14:02:22;0.40;;;0.40;;
4309;SDS011;2168;53.576;9.980;2024-03-07T14:07:44;0.60;;;0.60;;
4309;SDS011;2168;53.576;9.980;2024-03-07T14:10:32;0.37;;;0.37;;
4309;SDS011;2168;53.576;9.980;2024-03-07T14:27:37;0.50;;;0.50;;
4309;SDS011;2168;53.576;9.980;2024-03-07T14:33:18;0.30;;;0.30;;
4309;SDS011;2168;53.576;9.980;2024-03-07T14:36:02;0.30;;;0.30;;
4309;SDS011;2168;53.576;9.980;2024-03-07T14:41:11;0.57;;;0.57;;
4309;SDS011;2168;53.576;9.980;2024-03-07T14:43:37;0.50;;;0.50;;
4309;SDS011;2168;53.576;9.980;2024-03-07T14:46:14;0.50;;;0.50;;
4309;SDS011;2168;53.576;9.980;2024-03-07T14:48:42;0.50;;;0.50;;
4309;SDS011;2168;53.576;9.980;2024-03-07T14:51:09;0.60;;;0.60;;
4309;SDS011;2168;53.576;9.980;2024-03-07T14:53:38;0.50;;;0.50;;
4309;SDS011;2168;53.576;9.980;2024-03-07T14:56:03;0.50;;;0.50;;
4309;SDS011;2168;53.576;9.980;2024-03-07T14:58:30;0.40;;;0.40;;
4309;SDS011;2168;53.576;9.980;2024-03-07T15:00:55;0.60;;;0.60;;
4309;SDS011;2168;53.576;9.980;2024-03-07T15:03:21;0.80;;;0.80;;
4309;SDS011;2168;53.576;9.980;2024-03-07T15:05:47;0.60;;;0.60;;
4309;SDS011;2168;53.576;9.980;2024-03-07T15:08:13;0.40;;;0.40;;
4309;SDS011;2168;53.576;9.980;2024-03-07T15:10:42;0.63;;;0.63;;
4309;SDS011;2168;53.576;9.980;2024-03-07T15:13:11;0.50;;;0.50;;
4309;SDS011;2168;53.576;9.980;2024-03-07T15:15:37;0.60;;;0.60;;
4309;SDS011;2168;53.576;9.980;2024-03-07T15:18:04;0.87;;;0.87;;
4309;SDS011;2168;53.576;9.980;2024-03-07T15:20:30;0.70;;;0.70;;
4309;SDS011;2168;53.576;9.980;2024-03-07T15:22:57;0.70;;;0.70;;
4309;SDS011;2168;53.576;9.980;2024-03-07T15:25:23;0.70;;;0.70;;
4309;SDS011;2168;53.576;9.980;2024-03-07T15:27:48;0.80;;;0.80;;
4309;SDS011;2168;53.576;9.980;2024-03-07T15:30:21;0.80;;;0.80;;
4309;SDS011;2168;53.576;9.980;2024-03-07T15:32:46;0.77;;;0.77;;
4309;SDS011;2168;53.576;9.980;2024-03-07T15:35:12;0.90;;;0.90;;
4309;SDS011;2168;53.576;9.980;2024-03-07T15:37:38;0.60;;;0.60;;
4309;SDS011;2168;53.576;9.980;2024-03-07T15:40:05;0.80;;;0.80;;
4309;SDS011;2168;53.576;9.980;2024-03-07T15:42:36;0.80;;;0.80;;
4309;SDS011;2168;53.576;9.980;2024-03-07T15:45:02;0.70;;;0.70;;